Time;durP1;ratioP1;P1;durP2;ratioP2;P2;SDS_P1;SDS_P2;PMS_P1;PMS_P2;Temp;Humidity;BMP_temperature;BMP_pressure;BME280_temperature;BME280_humidity;BME280_pressure;Samples;Min_cycle;Max_cycle;Signal;HPM_P1;HPM_P2
2022/04/15 00:01:11;;;;;;;10.88;5.53;;;7.90;99.90;;;;;;5091918;28;20036;-70
2022/04/15 00:03:36;;;;;;;12.68;5.80;;;8.00;99.90;;;;;;5092169;28;20498;-69
2022/04/15 00:06:08;;;;;;;12.68;5.80;;;8.00;99.90;;;;;;5091801;28;20040;-69
2022/04/15 00:08:35;;;;;;;12.07;5.75;;;8.00;99.90;;;;;;5092399;28;20047;-70
2022/04/15 00:11:01;;;;;;;11.60;5.38;;;8.00;99.90;;;;;;5095065;28;20044;-69
2022/04/15 00:13:29;;;;;;;9.60;4.80;;;8.00;99.90;;;;;;5095612;28;20059;-69
2022/04/15 00:15:56;;;;;;;9.88;4.93;;;8.10;99.90;;;;;;5095448;28;20407;-69
2022/04/15 00:18:22;;;;;;;13.10;5.57;;;8.10;99.90;;;;;;5078095;28;20452;-69
2022/04/15 00:20:48;;;;;;;15.50;5.13;;;8.10;99.90;;;;;;5095396;28;20158;-69
2022/04/15 00:23:13;;;;;;;11.57;5.60;;;8.10;99.90;;;;;;5095396;28;20036;-70
2022/04/15 00:25:39;;;;;;;10.55;4.93;;;8.10;99.90;;;;;;5095372;28;20074;-70
2022/04/15 00:28:05;;;;;;;13.13;5.40;;;8.40;99.90;;;;;;5095542;28;20048;-69
2022/04/15 00:30:30;;;;;;;10.10;4.88;;;8.20;99.90;;;;;;5095470;28;20040;-68
2022/04/15 00:32:56;;;;;;;13.90;5.20;;;8.20;99.90;;;;;;5095276;28;20479;-68
2022/04/15 00:35:22;;;;;;;10.88;5.32;;;8.20;99.90;;;;;;5095295;28;20087;-70
2022/04/15 00:37:48;;;;;;;11.95;4.95;;;8.20;99.90;;;;;;5094511;28;20055;-70
2022/04/15 00:40:14;;;;;;;10.63;5.50;;;8.30;99.90;;;;;;5076955;28;20051;-69
2022/04/15 00:42:39;;;;;;;11.75;5.45;;;8.30;99.90;;;;;;5076850;28;20055;-69
2022/04/15 00:45:09;;;;;;;11.10;4.63;;;8.30;99.90;;;;;;5095321;28;20087;-70
2022/04/15 00:47:51;;;;;;;11.65;5.30;;;8.30;99.90;;;;;;5095052;28;20113;-69
2022/04/15 00:50:24;;;;;;;14.82;5.65;;;8.50;99.90;;;;;;5095205;28;20437;-69
2022/04/15 00:52:51;;;;;;;12.48;5.57;;;8.50;99.90;;;;;;5094561;28;20123;-69
2022/04/15 00:55:19;;;;;;;12.75;6.15;;;8.40;99.90;;;;;;5094642;28;20068;-69
2022/04/15 00:57:52;;;;;;;11.60;5.63;;;8.40;99.90;;;;;;5094793;28;20044;-69
2022/04/15 01:00:20;;;;;;;10.88;5.65;;;8.30;99.90;;;;;;5094759;28;20048;-69
2022/04/15 01:02:46;;;;;;;10.20;5.35;;;8.30;99.90;;;;;;5094912;28;20040;-69
2022/04/15 01:05:13;;;;;;;13.52;5.15;;;8.40;99.90;;;;;;5094834;28;20068;-68
2022/04/15 01:07:46;;;;;;;9.82;5.00;;;8.30;99.90;;;;;;5094593;28;20035;-69
2022/04/15 01:10:13;;;;;;;12.20;5.20;;;8.30;99.90;;;;;;5094042;28;20086;-69
2022/04/15 01:12:45;;;;;;;12.65;5.40;;;8.30;99.90;;;;;;5094261;28;20093;-68
2022/04/15 01:15:13;;;;;;;9.98;4.72;;;8.30;99.90;;;;;;5094496;28;20040;-70
2022/04/15 01:17:39;;;;;;;12.07;5.13;;;8.30;99.90;;;;;;5094639;28;20044;-70
2022/04/15 01:20:08;;;;;;;13.38;4.93;;;8.30;99.90;;;;;;5094617;28;20069;-69
2022/04/15 01:22:38;;;;;;;10.35;4.55;;;8.30;99.90;;;;;;5094242;28;20096;-69
2022/04/15 01:25:06;;;;;;;11.05;4.72;;;8.30;99.90;;;;;;5093963;28;20111;-69
2022/04/15 01:27:37;;;;;;;11.70;6.03;;;8.30;99.90;;;;;;5094184;28;20105;-69
2022/04/15 01:30:04;;;;;;;11.68;5.72;;;8.30;99.90;;;;;;5094343;28;20051;-68
2022/04/15 01:32:30;;;;;;;11.02;5.55;;;8.30;99.90;;;;;;5094085;28;20074;-69
2022/04/15 01:34:56;;;;;;;12.50;5.60;;;8.40;99.90;;;;;;5094094;28;20551;-69
2022/04/15 01:37:23;;;;;;;10.50;4.97;;;8.30;99.90;;;;;;5093834;28;20055;-69
2022/04/15 01:39:50;;;;;;;11.98;5.38;;;8.30;99.90;;;;;;5093879;28;20113;-68
2022/04/15 01:42:17;;;;;;;12.13;5.60;;;8.30;99.90;;;;;;5093333;28;20076;-69
2022/04/15 01:44:43;;;;;;;10.55;4.57;;;8.30;99.90;;;;;;5094150;28;20075;-70
2022/04/15 01:47:10;;;;;;;12.68;5.10;;;8.40;99.90;;;;;;5093697;28;20601;-68
2022/04/15 01:49:36;;;;;;;9.10;4.63;;;8.30;99.90;;;;;;5075781;28;20058;-69
2022/04/15 01:52:02;;;;;;;10.23;4.10;;;8.30;99.90;;;;;;5076102;28;20048;-68
2022/04/15 01:54:28;;;;;;;10.38;4.28;;;8.30;99.90;;;;;;5075861;28;20278;-69
2022/04/15 01:56:54;;;;;;;11.05;4.28;;;8.30;99.90;;;;;;5093957;28;20098;-69
2022/04/15 01:59:20;;;;;;;10.57;4.65;;;8.30;99.90;;;;;;5075194;28;20036;-69
2022/04/15 02:01:46;;;;;;;8.15;4.10;;;8.30;99.90;;;;;;5093618;28;20040;-69
2022/04/15 02:04:11;;;;;;;9.75;4.20;;;8.30;99.90;;;;;;5075607;28;20504;-69
2022/04/15 02:06:37;;;;;;;9.18;4.30;;;8.40;99.90;;;;;;5093664;28;20044;-70
2022/04/15 02:09:03;;;;;;;8.65;4.05;;;8.40;99.90;;;;;;5093673;28;20063;-68
2022/04/15 02:11:28;;;;;;;10.05;4.10;;;8.40;99.90;;;;;;5075194;28;20044;-69
2022/04/15 02:13:54;;;;;;;9.73;3.90;;;8.40;99.90;;;;;;5074756;28;20044;-69
2022/04/15 02:16:20;;;;;;;9.02;4.35;;;8.40;99.90;;;;;;5093360;28;20395;-69
2022/04/15 02:18:45;;;;;;;10.68;4.43;;;8.70;99.90;;;;;;5093525;28;20430;-69
2022/04/15 02:21:11;;;;;;;10.68;4.80;;;8.40;99.90;;;;;;5093302;28;20040;-69
2022/04/15 02:23:37;;;;;;;11.60;5.05;;;8.40;99.90;;;;;;5075153;28;20055;-70
2022/04/15 02:26:02;;;;;;;10.25;4.43;;;8.40;99.90;;;;;;5093255;28;20381;-69
2022/04/15 02:28:28;;;;;;;9.50;4.88;;;8.40;99.90;;;;;;5093166;28;20460;-69
2022/04/15 02:30:54;;;;;;;10.77;5.32;;;8.40;99.90;;;;;;5092789;28;20424;-69
2022/04/15 02:33:20;;;;;;;11.15;4.80;;;8.40;99.90;;;;;;5092843;28;20048;-69
2022/04/15 02:35:46;;;;;;;12.02;4.95;;;8.40;99.90;;;;;;5093033;28;20062;-70
2022/04/15 02:38:11;;;;;;;10.43;4.15;;;8.40;99.90;;;;;;5092824;28;20077;-69
2022/04/15 02:40:38;;;;;;;14.05;4.43;;;8.40;99.90;;;;;;5093174;28;20048;-70
2022/04/15 02:43:03;;;;;;;10.93;5.10;;;8.40;99.90;;;;;;5092830;28;20046;-70
2022/04/15 02:45:30;;;;;;;10.20;4.70;;;8.40;99.90;;;;;;5074333;28;20135;-69
2022/04/15 02:47:56;;;;;;;12.38;4.93;;;8.40;99.90;;;;;;5092895;28;20055;-68
2022/04/15 02:50:22;;;;;;;12.43;4.60;;;8.40;99.90;;;;;;5075003;28;20052;-69
2022/04/15 02:52:49;;;;;;;14.88;6.47;;;8.60;99.90;;;;;;5092943;28;20540;-69
2022/04/15 02:55:14;;;;;;;15.02;6.68;;;8.40;99.90;;;;;;5092907;28;20043;-69
2022/04/15 02:57:40;;;;;;;15.18;7.22;;;8.90;99.90;;;;;;5092583;28;20047;-70
2022/04/15 03:00:07;;;;;;;14.00;6.80;;;8.30;99.90;;;;;;5093029;28;20071;-71
2022/04/15 03:02:33;;;;;;;15.63;7.03;;;8.20;99.90;;;;;;5092380;28;20040;-69
2022/04/15 03:04:59;;;;;;;14.70;7.20;;;8.10;99.90;;;;;;5092700;28;20497;-69
2022/04/15 03:07:25;;;;;;;13.00;6.85;;;8.00;99.90;;;;;;5092822;28;20189;-69
2022/04/15 03:09:50;;;;;;;13.35;7.30;;;7.90;99.90;;;;;;5074551;28;20539;-68
2022/04/15 03:12:16;;;;;;;12.73;6.90;;;7.90;99.90;;;;;;5092571;28;20040;-69
2022/04/15 03:14:42;;;;;;;13.82;7.32;;;7.90;99.90;;;;;;5092304;28;20145;-69
2022/04/15 03:17:08;;;;;;;12.85;6.90;;;7.90;99.90;;;;;;5074185;28;20086;-69
2022/04/15 03:19:33;;;;;;;13.32;6.80;;;8.00;99.90;;;;;;5092407;28;20043;-69
2022/04/15 03:21:59;;;;;;;14.38;6.82;;;7.80;99.90;;;;;;5092513;28;20044;-69
2022/04/15 03:24:24;;;;;;;15.15;6.88;;;7.90;99.90;;;;;;5092505;28;20044;-69
2022/04/15 03:26:50;;;;;;;12.85;6.50;;;7.80;99.90;;;;;;5074503;28;20090;-69
2022/04/15 03:29:16;;;;;;;14.00;6.43;;;7.80;99.90;;;;;;5092170;28;20044;-68
2022/04/15 03:31:41;;;;;;;13.82;6.43;;;7.90;99.90;;;;;;5092414;28;20032;-69
2022/04/15 03:34:07;;;;;;;12.15;6.45;;;7.70;99.90;;;;;;5092076;28;20115;-69
2022/04/15 03:36:33;;;;;;;11.93;6.75;;;7.70;99.90;;;;;;5092275;28;20130;-69
2022/04/15 03:38:59;;;;;;;12.82;6.97;;;7.70;99.90;;;;;;5092089;28;20062;-69
2022/04/15 03:41:24;;;;;;;14.48;7.15;;;7.70;99.90;;;;;;5092441;28;20044;-67
2022/04/15 03:43:50;;;;;;;11.38;6.53;;;8.10;99.90;;;;;;5092088;28;20093;-69
2022/04/15 03:46:16;;;;;;;14.30;6.53;;;7.70;99.90;;;;;;5095865;28;20506;-70
2022/04/15 03:48:42;;;;;;;10.93;5.80;;;7.60;99.90;;;;;;5111269;28;20056;-69
2022/04/15 03:51:08;;;;;;;10.25;5.32;;;7.80;99.90;;;;;;5077771;28;20055;-69
2022/04/15 03:53:35;;;;;;;10.88;5.35;;;7.60;99.90;;;;;;5096046;28;20483;-69
2022/04/15 03:56:01;;;;;;;10.73;5.80;;;7.60;99.90;;;;;;5096007;28;20040;-69
2022/04/15 03:58:26;;;;;;;9.50;4.85;;;7.60;99.90;;;;;;5095962;28;20055;-69
2022/04/15 04:00:53;;;;;;;10.32;4.85;;;7.60;99.90;;;;;;5095874;28;20055;-69
2022/04/15 04:03:19;;;;;;;10.30;4.90;;;7.60;99.90;;;;;;5095971;28;20051;-68
2022/04/15 04:05:45;;;;;;;12.10;5.18;;;7.90;99.90;;;;;;5095610;28;20043;-69
2022/04/15 04:08:11;;;;;;;10.57;5.18;;;7.60;99.90;;;;;;5095795;28;20048;-69
2022/04/15 04:10:37;;;;;;;9.85;4.78;;;7.60;99.90;;;;;;5095795;28;20040;-70
2022/04/15 04:13:03;;;;;;;11.02;5.00;;;7.60;99.90;;;;;;5095763;28;20089;-69
2022/04/15 04:15:30;;;;;;;8.48;4.00;;;7.60;99.90;;;;;;5095650;28;20051;-69
2022/04/15 04:17:56;;;;;;;8.63;3.80;;;7.60;99.90;;;;;;5095599;28;20032;-69
2022/04/15 04:20:22;;;;;;;9.45;4.13;;;7.60;99.90;;;;;;5095779;28;20040;-69
2022/04/15 04:22:48;;;;;;;9.55;4.22;;;7.60;99.90;;;;;;5076389;28;20612;-67
2022/04/15 04:25:14;;;;;;;9.68;4.78;;;7.60;99.90;;;;;;5095378;28;20484;-70
2022/04/15 04:27:41;;;;;;;10.35;5.20;;;7.60;99.90;;;;;;5077523;28;20040;-70
2022/04/15 04:30:09;;;;;;;11.23;5.68;;;7.60;99.90;;;;;;5095325;28;20532;-69
2022/04/15 04:32:34;;;;;;;10.50;5.25;;;7.60;99.90;;;;;;5095410;28;20479;-68
2022/04/15 04:35:01;;;;;;;10.77;4.97;;;7.50;99.90;;;;;;5095485;28;20043;-69
2022/04/15 04:37:26;;;;;;;11.23;5.18;;;7.60;99.90;;;;;;5094997;28;20086;-69
2022/04/15 04:39:52;;;;;;;9.55;4.43;;;7.50;99.90;;;;;;5076792;28;20052;-69
2022/04/15 04:42:19;;;;;;;9.25;4.45;;;7.50;99.90;;;;;;5095146;28;20506;-69
2022/04/15 04:44:45;;;;;;;11.75;5.00;;;7.40;99.90;;;;;;5095031;28;20048;-68
2022/04/15 04:47:12;;;;;;;9.75;4.70;;;7.40;99.90;;;;;;5094918;28;20040;-70
2022/04/15 04:49:38;;;;;;;9.85;4.63;;;7.40;99.90;;;;;;5095129;28;20548;-69
2022/04/15 04:52:05;;;;;;;9.10;3.80;;;7.40;99.90;;;;;;5095079;28;20032;-70
2022/04/15 04:54:31;;;;;;;8.80;4.25;;;7.30;99.90;;;;;;5094434;28;20472;-68
2022/04/15 04:56:57;;;;;;;8.55;3.50;;;7.30;99.90;;;;;;5076482;28;20458;-70
2022/04/15 04:59:25;;;;;;;10.38;3.35;;;7.30;99.90;;;;;;5094681;28;20044;-69
2022/04/15 05:01:51;;;;;;;9.95;3.80;;;7.20;99.90;;;;;;5094697;28;20044;-68
2022/04/15 05:04:18;;;;;;;8.70;4.00;;;7.30;99.90;;;;;;5094986;28;20032;-70
2022/04/15 05:06:43;;;;;;;10.52;3.38;;;7.20;99.90;;;;;;5094477;28;20033;-69
2022/04/15 05:09:09;;;;;;;9.10;3.90;;;7.20;99.90;;;;;;5094670;28;20051;-69
2022/04/15 05:11:35;;;;;;;11.73;4.50;;;7.20;99.90;;;;;;5094088;28;20087;-69
2022/04/15 05:14:00;;;;;;;9.82;4.20;;;8.10;99.90;;;;;;5094497;28;20071;-69
2022/04/15 05:16:26;;;;;;;10.85;4.57;;;7.80;99.90;;;;;;5075668;28;20411;-69
2022/04/15 05:18:52;;;;;;;11.48;4.40;;;7.10;99.90;;;;;;5094736;28;20051;-70
2022/04/15 05:21:17;;;;;;;10.05;4.20;;;7.10;99.90;;;;;;5094374;28;20052;-69
2022/04/15 05:23:45;;;;;;;9.98;3.88;;;7.10;99.90;;;;;;5094387;28;20494;-68
2022/04/15 05:26:11;;;;;;;13.48;4.38;;;7.20;99.90;;;;;;5075479;28;20059;-69
2022/04/15 05:28:38;;;;;;;9.95;4.18;;;7.10;99.90;;;;;;5094356;28;20180;-70
2022/04/15 05:31:04;;;;;;;12.13;4.40;;;7.10;99.90;;;;;;5093956;28;20059;-70
2022/04/15 05:33:30;;;;;;;8.90;3.78;;;7.10;99.90;;;;;;5094101;28;20050;-69
2022/04/15 05:35:57;;;;;;;10.43;3.97;;;7.10;99.90;;;;;;5094267;28;20119;-69
2022/04/15 05:38:23;;;;;;;10.93;4.38;;;7.20;99.90;;;;;;5094088;28;20616;-69
2022/04/15 05:40:48;;;;;;;9.50;3.90;;;7.20;99.90;;;;;;5094105;28;20109;-69
2022/04/15 05:43:15;;;;;;;8.80;3.72;;;7.10;99.90;;;;;;5093279;28;20044;-69
2022/04/15 05:45:40;;;;;;;11.40;4.38;;;7.40;99.90;;;;;;5093885;28;20052;-70
2022/04/15 05:48:06;;;;;;;9.63;4.32;;;7.20;99.90;;;;;;5093875;28;20426;-69
2022/04/15 05:50:32;;;;;;;7.90;3.78;;;7.20;99.90;;;;;;5093857;28;20076;-70
2022/04/15 05:52:57;;;;;;;10.07;4.57;;;7.20;99.90;;;;;;5093702;28;20040;-70
2022/04/15 05:55:23;;;;;;;14.80;4.95;;;7.30;99.90;;;;;;5075607;28;20039;-70
2022/04/15 05:57:49;;;;;;;11.35;4.53;;;7.30;99.90;;;;;;5075019;28;20044;-69
2022/04/15 06:00:15;;;;;;;11.45;5.20;;;7.30;99.90;;;;;;5093392;28;20044;-68
2022/04/15 06:02:40;;;;;;;12.38;4.88;;;7.30;99.90;;;;;;5093301;28;20102;-69
2022/04/15 06:05:07;;;;;;;11.48;5.65;;;7.40;99.90;;;;;;5093886;28;20036;-68
2022/04/15 06:07:33;;;;;;;11.65;5.95;;;7.40;99.90;;;;;;5074472;28;20128;-69
2022/04/15 06:09:58;;;;;;;11.48;4.72;;;7.40;99.90;;;;;;5093559;28;20131;-69
2022/04/15 06:12:54;;;;;;;12.25;5.97;;;7.80;99.90;;;;;;5093597;28;20036;-68
2022/04/15 06:15:23;;;;;;;12.80;6.20;;;7.50;99.90;;;;;;5092714;28;20048;-69
2022/04/15 06:17:50;;;;;;;12.52;5.28;;;7.50;99.90;;;;;;5093266;28;20036;-69
2022/04/15 06:20:17;;;;;;;11.73;5.22;;;7.50;99.90;;;;;;5093310;28;20036;-69
2022/04/15 06:22:43;;;;;;;11.05;4.90;;;7.60;99.90;;;;;;5093227;28;20074;-69
2022/04/15 06:25:09;;;;;;;10.85;5.20;;;7.60;99.90;;;;;;5093290;28;20055;-68
2022/04/15 06:27:35;;;;;;;12.52;5.43;;;7.60;99.90;;;;;;5093002;28;20403;-67
2022/04/15 06:30:01;;;;;;;11.73;5.43;;;7.60;99.90;;;;;;5092691;28;20039;-68
2022/04/15 06:32:26;;;;;;;10.55;4.68;;;7.60;99.90;;;;;;5092865;28;20158;-70
2022/04/15 06:34:52;;;;;;;11.32;4.82;;;7.60;99.90;;;;;;5093313;28;20040;-68
2022/04/15 06:37:18;;;;;;;15.10;5.35;;;7.70;99.90;;;;;;5092929;28;20048;-68
2022/04/15 06:39:49;;;;;;;13.63;6.60;;;7.70;99.90;;;;;;5092991;28;20143;-67
2022/04/15 06:42:19;;;;;;;14.80;7.10;;;7.70;99.90;;;;;;5092868;28;20036;-70
2022/04/15 06:44:45;;;;;;;19.83;8.50;;;7.70;99.90;;;;;;5093053;28;20144;-70
2022/04/15 06:47:11;;;;;;;21.70;9.50;;;7.70;99.90;;;;;;5092549;28;20462;-69
2022/04/15 06:49:36;;;;;;;17.70;9.25;;;7.70;99.90;;;;;;5093031;28;20044;-69
2022/04/15 06:52:02;;;;;;;18.50;8.75;;;7.70;99.90;;;;;;5092903;28;20131;-68
2022/04/15 06:54:28;;;;;;;21.80;9.75;;;7.70;99.90;;;;;;5092778;28;20046;-69
2022/04/15 06:56:53;;;;;;;23.23;8.85;;;7.70;99.90;;;;;;5092757;28;20044;-69
2022/04/15 06:59:19;;;;;;;19.42;8.57;;;7.90;99.90;;;;;;5092701;28;20051;-75
2022/04/15 07:01:46;;;;;;;20.50;8.75;;;7.70;99.90;;;;;;5075945;28;20131;-78
2022/04/15 07:04:12;;;;;;;20.35;7.90;;;7.80;99.90;;;;;;5109963;28;20085;-76
2022/04/15 07:06:38;;;;;;;18.02;8.35;;;7.80;99.90;;;;;;5111514;28;20043;-70
2022/04/15 07:09:03;;;;;;;19.10;7.63;;;7.80;99.90;;;;;;5110603;28;20051;-70
2022/04/15 07:11:29;;;;;;;25.42;8.77;;;7.80;99.90;;;;;;5111645;28;20036;-74
2022/04/15 07:13:55;;;;;;;18.23;7.50;;;7.80;99.90;;;;;;5110738;28;20058;-71
2022/04/15 07:16:20;;;;;;;19.40;7.18;;;7.80;99.90;;;;;;5111696;28;20574;-73
2022/04/15 07:18:46;;;;;;;15.98;6.60;;;8.00;99.90;;;;;;5112060;28;20506;-74
2022/04/15 07:21:12;;;;;;;19.38;8.40;;;7.80;99.90;;;;;;5115064;28;20044;-77
2022/04/15 07:23:37;;;;;;;20.00;7.60;;;7.90;99.90;;;;;;5115312;28;20074;-71
2022/04/15 07:26:03;;;;;;;16.65;7.90;;;8.00;99.90;;;;;;5114858;28;20059;-71
2022/04/15 07:28:29;;;;;;;17.77;6.38;;;8.00;99.90;;;;;;5096407;28;20048;-73
2022/04/15 07:30:55;;;;;;;13.25;6.10;;;8.00;99.90;;;;;;5065438;28;20067;-83
2022/04/15 07:33:20;;;;;;;17.95;6.40;;;8.00;99.90;;;;;;5085302;28;20043;-71
2022/04/15 07:35:46;;;;;;;20.27;6.75;;;8.00;99.90;;;;;;5088999;28;20182;-74
2022/04/15 07:38:12;;;;;;;18.80;6.85;;;8.00;99.90;;;;;;5095368;28;20052;-75
2022/04/15 07:40:38;;;;;;;15.43;6.18;;;8.00;99.90;;;;;;5096527;28;20456;-75
2022/04/15 07:43:03;;;;;;;16.35;5.85;;;8.00;99.90;;;;;;5096898;28;20091;-73
2022/04/15 07:45:29;;;;;;;14.60;5.68;;;8.00;99.90;;;;;;5096717;28;20525;-74
2022/04/15 07:47:55;;;;;;;14.98;6.47;;;8.00;99.90;;;;;;5096555;28;20047;-79
2022/04/15 07:50:23;;;;;;;15.30;6.03;;;8.40;99.90;;;;;;5115109;28;20049;-80
2022/04/15 07:52:50;;;;;;;14.77;6.20;;;8.00;99.90;;;;;;5114290;28;20054;-78
2022/04/15 07:55:16;;;;;;;19.65;6.50;;;8.00;99.90;;;;;;5115028;28;20054;-80
2022/04/15 07:57:42;;;;;;;14.88;6.20;;;8.00;99.90;;;;;;5114695;28;20406;-80
2022/04/15 08:00:08;;;;;;;12.43;5.97;;;8.00;99.90;;;;;;5095963;28;21217;-78
2022/04/15 08:02:34;;;;;;;13.85;5.60;;;8.10;99.90;;;;;;5096620;28;20036;-79
2022/04/15 08:04:59;;;;;;;13.90;5.63;;;8.00;99.90;;;;;;5115342;28;20062;-80
2022/04/15 08:07:25;;;;;;;15.15;4.97;;;8.00;99.90;;;;;;5097854;28;20104;-80
2022/04/15 08:09:51;;;;;;;16.23;6.25;;;8.40;99.90;;;;;;5116552;28;20088;-77
2022/04/15 08:12:16;;;;;;;13.90;6.20;;;8.10;99.90;;;;;;5098339;28;20044;-79
2022/04/15 08:14:42;;;;;;;17.15;5.63;;;8.00;99.90;;;;;;5098060;28;20491;-78
2022/04/15 08:17:09;;;;;;;13.65;5.43;;;8.00;99.90;;;;;;5097738;28;20052;-81
2022/04/15 08:19:35;;;;;;;14.68;5.28;;;8.00;99.90;;;;;;5116293;28;20126;-77
2022/04/15 08:22:02;;;;;;;10.93;4.57;;;8.10;99.90;;;;;;5101136;28;20032;-72
2022/04/15 08:24:28;;;;;;;11.40;4.60;;;8.20;99.90;;;;;;5070395;28;20071;-77
2022/04/15 08:26:56;;;;;;;14.35;5.03;;;8.30;99.90;;;;;;5108174;28;20495;-71
2022/04/15 08:29:22;;;;;;;16.15;5.28;;;8.40;99.90;;;;;;5093163;28;20051;-71
2022/04/15 08:31:47;;;;;;;12.52;4.82;;;8.50;99.90;;;;;;5073131;28;20123;-88
2022/04/15 08:34:13;;;;;;;10.82;4.68;;;8.70;99.90;;;;;;5098182;28;20062;-76
2022/04/15 08:36:39;;;;;;;9.68;3.88;;;8.70;99.90;;;;;;5108252;28;20050;-76
2022/04/15 08:39:06;;;;;;;11.68;4.65;;;8.80;99.90;;;;;;5074324;28;20089;-79
2022/04/15 08:41:39;;;;;;;15.02;4.97;;;8.80;99.90;;;;;;5093135;28;20044;-78
2022/04/15 08:44:06;;;;;;;13.98;4.53;;;8.80;99.90;;;;;;5093118;28;20126;-77
2022/04/15 08:46:32;;;;;;;12.57;4.88;;;8.90;99.90;;;;;;5092179;28;20036;-85
2022/04/15 08:49:00;;;;;;;11.98;4.85;;;8.90;99.90;;;;;;5073617;28;20059;-75
2022/04/15 08:51:27;;;;;;;15.85;5.32;;;8.90;99.90;;;;;;5085775;28;20109;-80
2022/04/15 08:53:54;;;;;;;9.63;4.63;;;8.90;99.90;;;;;;5096047;28;20082;-70
2022/04/15 08:56:22;;;;;;;13.25;4.15;;;9.10;99.90;;;;;;5091920;28;20044;-83
2022/04/15 08:58:48;;;;;;;9.35;3.75;;;9.10;99.90;;;;;;5078576;28;20048;-79
2022/04/15 09:01:14;;;;;;;10.75;3.85;;;9.20;99.90;;;;;;5073768;28;20059;-75
2022/04/15 09:03:39;;;;;;;13.75;4.50;;;9.30;99.90;;;;;;5092024;28;20044;-73
2022/04/15 09:06:16;;;;;;;10.85;4.00;;;9.60;99.90;;;;;;5091466;28;20135;-80
2022/04/15 09:09:07;;;;;;;12.30;4.35;;;9.50;99.90;;;;;;5104869;28;20036;-74
2022/04/15 09:11:35;;;;;;;10.20;4.13;;;9.60;99.90;;;;;;5088312;28;20036;-72
2022/04/15 09:14:12;;;;;;;11.20;4.45;;;9.60;99.90;;;;;;5069307;28;20036;-76
2022/04/15 09:16:43;;;;;;;9.40;3.97;;;9.50;99.90;;;;;;5094460;28;20488;-72
2022/04/15 09:19:10;;;;;;;12.57;4.03;;;9.70;99.90;;;;;;5073398;28;20131;-73
2022/04/15 09:21:37;;;;;;;10.77;4.32;;;9.50;99.90;;;;;;5075363;28;21367;-71
2022/04/15 09:24:04;;;;;;;10.38;4.10;;;9.60;99.90;;;;;;5058630;28;20056;-71
2022/04/15 09:26:30;;;;;;;11.75;4.45;;;9.60;99.90;;;;;;5105950;28;20035;-75
2022/04/15 09:28:56;;;;;;;10.27;4.60;;;9.70;99.90;;;;;;5102165;28;20063;-73
2022/04/15 09:31:23;;;;;;;13.20;4.55;;;9.70;99.90;;;;;;5074758;28;20059;-74
2022/04/15 09:34:02;;;;;;;12.90;4.45;;;9.70;99.90;;;;;;5089694;28;20498;-74
2022/04/15 09:36:37;;;;;;;14.80;5.07;;;9.70;99.90;;;;;;5074534;28;20051;-72
2022/04/15 09:39:11;;;;;;;11.75;4.30;;;9.70;99.90;;;;;;5064310;28;20065;-71
2022/04/15 09:41:42;;;;;;;10.90;4.90;;;9.60;99.90;;;;;;5091733;28;20495;-73
2022/04/15 09:44:12;;;;;;;11.30;4.75;;;9.70;99.90;;;;;;5087100;28;20040;-72
2022/04/15 09:46:46;;;;;;;12.00;4.95;;;9.70;99.90;;;;;;5090468;28;20052;-75
2022/04/15 09:49:13;;;;;;;13.60;5.13;;;9.60;99.90;;;;;;5094494;28;20043;-76
2022/04/15 09:51:51;;;;;;;11.02;4.20;;;9.60;99.90;;;;;;5090448;28;20578;-74
2022/04/15 09:54:23;;;;;;;13.82;4.30;;;9.20;99.90;;;;;;5094019;28;20089;-79
2022/04/15 09:56:50;;;;;;;13.32;5.15;;;9.60;99.90;;;;;;5087554;28;20195;-71
2022/04/15 09:59:19;;;;;;;11.75;6.07;;;9.70;99.90;;;;;;5083929;28;20047;-80
2022/04/15 10:01:45;;;;;;;11.50;5.10;;;9.60;99.90;;;;;;5086294;28;20059;-81
2022/04/15 10:04:13;;;;;;;16.23;5.43;;;9.70;99.90;;;;;;5086411;28;20491;-71
2022/04/15 10:06:42;;;;;;;13.25;5.20;;;9.70;99.90;;;;;;5085034;28;20045;-76
2022/04/15 10:09:12;;;;;;;15.15;5.50;;;9.70;99.90;;;;;;5085024;28;20046;-77
2022/04/15 10:11:44;;;;;;;12.63;5.45;;;9.70;99.90;;;;;;5085084;28;20415;-77
2022/04/15 10:14:11;;;;;;;13.43;5.40;;;9.70;99.90;;;;;;5086097;28;20044;-73
2022/04/15 10:16:39;;;;;;;11.05;5.18;;;9.70;99.90;;;;;;5089896;28;20560;-78
2022/04/15 10:19:05;;;;;;;12.23;5.10;;;9.70;99.90;;;;;;5088837;28;20036;-76
2022/04/15 10:21:37;;;;;;;12.38;5.15;;;9.70;99.90;;;;;;5087815;28;20461;-80
2022/04/15 10:24:04;;;;;;;15.35;5.28;;;9.60;99.90;;;;;;5092994;28;20051;-79
2022/04/15 10:26:50;;;;;;;11.57;5.22;;;9.60;99.90;;;;;;5094063;28;20050;-76
2022/04/15 10:29:19;;;;;;;11.23;5.45;;;9.60;99.90;;;;;;5069335;28;20434;-71
2022/04/15 10:31:47;;;;;;;11.50;5.38;;;9.70;99.90;;;;;;5068871;28;20388;-75
2022/04/15 10:34:19;;;;;;;12.20;4.72;;;9.70;99.90;;;;;;5090844;28;20510;-71
2022/04/15 10:36:53;;;;;;;12.70;5.53;;;9.60;99.90;;;;;;5061749;28;20051;-74
2022/04/15 10:39:23;;;;;;;11.48;4.72;;;9.60;99.90;;;;;;5085752;28;20562;-75
2022/04/15 10:41:53;;;;;;;14.07;5.82;;;9.60;99.90;;;;;;5067244;28;20052;-71
2022/04/15 10:44:29;;;;;;;13.55;5.28;;;9.60;99.90;;;;;;5084721;28;20051;-72
2022/04/15 10:47:17;;;;;;;11.85;4.75;;;9.50;99.90;;;;;;5070959;28;20510;-74
2022/04/15 10:50:06;;;;;;;10.38;4.43;;;9.50;99.90;;;;;;5070109;28;20032;-74
2022/04/15 10:52:48;;;;;;;11.52;4.85;;;9.40;99.90;;;;;;5083789;28;20040;-73
2022/04/15 10:55:16;;;;;;;10.10;4.43;;;9.40;99.90;;;;;;5084542;28;20043;-74
2022/04/15 10:57:46;;;;;;;12.10;4.60;;;9.50;99.90;;;;;;5084596;28;20044;-73
2022/04/15 11:03:01;;;;;;;11.25;4.75;;;9.40;99.90;;;;;;5090426;28;20048;-72
2022/04/15 11:05:35;;;;;;;13.10;4.57;;;9.40;99.90;;;;;;5087421;28;20433;-69
2022/04/15 11:08:11;;;;;;;10.98;4.25;;;9.40;99.90;;;;;;5069460;28;20056;-73
2022/04/15 11:10:43;;;;;;;11.60;4.43;;;9.30;99.90;;;;;;5090967;28;20495;-72
2022/04/15 11:13:09;;;;;;;9.23;4.10;;;9.80;99.90;;;;;;5070148;28;20066;-74
2022/04/15 11:15:57;;;;;;;11.18;4.68;;;9.30;99.90;;;;;;5065745;28;20059;-77
2022/04/15 11:19:02;;;;;;;10.80;4.63;;;9.30;99.90;;;;;;5065360;28;20086;-75
2022/04/15 11:21:37;;;;;;;13.25;5.53;;;9.20;99.90;;;;;;5047254;28;20053;-70
2022/04/15 11:24:11;;;;;;;13.13;5.35;;;9.30;99.90;;;;;;5070858;28;20060;-78
2022/04/15 11:26:38;;;;;;;11.73;4.57;;;9.30;99.90;;;;;;5063961;28;20048;-75
2022/04/15 11:29:06;;;;;;;12.05;5.00;;;9.20;99.90;;;;;;5090380;28;20590;-72
2022/04/15 11:31:37;;;;;;;14.88;5.57;;;9.30;99.90;;;;;;5089650;28;20185;-72
2022/04/15 11:34:11;;;;;;;11.95;5.05;;;9.30;99.90;;;;;;5090881;28;20035;-74
2022/04/15 11:36:42;;;;;;;13.15;5.40;;;9.20;99.90;;;;;;5075308;28;20052;-76
2022/04/15 11:39:14;;;;;;;15.43;5.43;;;9.20;99.90;;;;;;5089133;28;20063;-72
2022/04/15 11:41:49;;;;;;;12.20;4.93;;;9.20;99.90;;;;;;5046770;28;20111;-73
2022/04/15 11:44:16;;;;;;;10.20;4.32;;;9.20;99.90;;;;;;5070406;28;20086;-73
2022/04/15 11:46:46;;;;;;;13.40;4.90;;;9.10;99.90;;;;;;5087650;28;20051;-75
2022/04/15 11:49:14;;;;;;;14.55;5.38;;;9.10;99.90;;;;;;5070390;28;20140;-79
2022/04/15 11:51:42;;;;;;;10.98;4.65;;;9.10;99.90;;;;;;5089533;28;20122;-79
2022/04/15 11:54:08;;;;;;;11.70;5.03;;;9.20;99.90;;;;;;5071900;28;20060;-76
2022/04/15 11:56:35;;;;;;;12.05;4.88;;;9.50;99.90;;;;;;5066416;28;20063;-77
2022/04/15 11:59:00;;;;;;;13.63;5.15;;;9.20;99.90;;;;;;5090770;28;20089;-75
2022/04/15 12:01:28;;;;;;;11.35;4.95;;;9.60;99.90;;;;;;5071602;28;20438;-78
2022/04/15 12:03:54;;;;;;;13.25;4.90;;;9.30;99.90;;;;;;5090929;28;20043;-76
2022/04/15 12:06:20;;;;;;;11.07;4.97;;;9.40;99.90;;;;;;5071431;28;20143;-77
2022/04/15 12:08:46;;;;;;;11.35;4.63;;;9.20;99.90;;;;;;5074477;28;20127;-77
2022/04/15 12:11:12;;;;;;;15.32;6.05;;;9.20;99.90;;;;;;5075164;28;20119;-74
2022/04/15 12:13:37;;;;;;;12.38;5.13;;;9.30;99.90;;;;;;5094947;28;20285;-78
2022/04/15 12:16:04;;;;;;;11.95;5.40;;;9.30;99.90;;;;;;5075959;28;20492;-76
2022/04/15 12:18:30;;;;;;;14.45;4.95;;;8.80;99.90;;;;;;5094285;28;20134;-74
2022/04/15 12:20:56;;;;;;;10.57;4.70;;;9.60;99.90;;;;;;5093529;28;20115;-77
2022/04/15 12:23:25;;;;;;;11.63;4.13;;;9.40;99.90;;;;;;5095397;28;20040;-78
2022/04/15 12:26:09;;;;;;;12.27;4.43;;;9.30;99.90;;;;;;5093870;28;20097;-79
2022/04/15 12:31:28;;;;;;;14.97;5.20;;;9.30;99.90;;;;;;5091157;28;20528;-78
2022/04/15 12:34:01;;;;;;;10.95;4.53;;;9.30;99.90;;;;;;5074387;28;20059;-79
2022/04/15 12:36:45;;;;;;;14.15;4.60;;;9.30;99.90;;;;;;5068683;28;20563;-70
2022/04/15 12:39:12;;;;;;;11.45;4.75;;;9.40;99.90;;;;;;5092060;28;20056;-75
2022/04/15 12:41:38;;;;;;;10.30;4.03;;;9.40;99.90;;;;;;5086729;28;20392;-77
2022/04/15 12:44:31;;;;;;;10.20;4.10;;;9.40;99.90;;;;;;5088501;28;20123;-78
2022/04/15 12:47:00;;;;;;;12.00;4.53;;;9.90;99.90;;;;;;5093041;28;20040;-75
2022/04/15 12:49:30;;;;;;;12.35;4.20;;;9.80;99.90;;;;;;5090028;28;20105;-83
2022/04/15 12:52:11;;;;;;;12.45;4.47;;;9.50;99.90;;;;;;5067782;28;20044;-77
2022/04/15 12:54:58;;;;;;;10.57;4.32;;;9.70;99.90;;;;;;5074549;28;20117;-76
2022/04/15 12:57:35;;;;;;;14.52;4.90;;;9.50;99.90;;;;;;5077225;28;20044;-76